createdAt,value
2022-11-27T00:01:16.189Z,-0.98
2022-11-27T00:03:43.557Z,-0.98
2022-11-27T00:06:19.249Z,-0.97
2022-11-27T00:08:46.629Z,-0.94
2022-11-27T00:11:16.226Z,-0.95
2022-11-27T00:13:42.877Z,-0.93
2022-11-27T00:16:10.075Z,-0.92
2022-11-27T00:18:36.827Z,-1.02
2022-11-27T00:21:14.926Z,-1.07
2022-11-27T00:23:41.879Z,-1.11
2022-11-27T00:26:08.794Z,-1.11
2022-11-27T00:28:36.056Z,-1.12
2022-11-27T00:31:06.145Z,-1.13
2022-11-27T00:33:33.197Z,-1.10
2022-11-27T00:36:04.156Z,-1.06
2022-11-27T00:38:33.520Z,-1.09
2022-11-27T00:41:18.422Z,-1.00
2022-11-27T00:43:45.669Z,-0.99
2022-11-27T00:46:13.833Z,-1.01
2022-11-27T00:48:41.043Z,-0.94
2022-11-27T00:51:10.711Z,-0.92
2022-11-27T00:53:37.478Z,-0.85
2022-11-27T00:56:04.768Z,-0.85
2022-11-27T00:58:31.639Z,-0.89
2022-11-27T01:01:06.942Z,-0.96
2022-11-27T01:03:34.553Z,-1.04
2022-11-27T01:06:06.010Z,-0.97
2022-11-27T01:08:33.936Z,-0.90
2022-11-27T01:11:01.324Z,-0.84
2022-11-27T01:13:34.367Z,-0.78
2022-11-27T01:16:03.589Z,-0.82
2022-11-27T01:18:30.472Z,-0.80
2022-11-27T01:20:56.967Z,-0.73
2022-11-27T01:23:23.996Z,-0.74
2022-11-27T01:25:53.345Z,-0.89
2022-11-27T01:28:21.154Z,-0.76
2022-11-27T01:30:47.793Z,-0.75
2022-11-27T01:33:14.419Z,-0.82
2022-11-27T01:35:40.949Z,-0.72
2022-11-27T01:38:07.471Z,-0.75
2022-11-27T01:40:34.115Z,-0.83
2022-11-27T01:43:00.629Z,-0.76
2022-11-27T01:45:27.217Z,-0.65
2022-11-27T01:47:58.660Z,-0.68
2022-11-27T01:50:32.257Z,-0.63
2022-11-27T01:53:15.785Z,-0.63
2022-11-27T01:55:58.662Z,-0.64
2022-11-27T01:58:28.842Z,-0.59
2022-11-27T02:00:55.600Z,-0.64
2022-11-27T02:03:22.454Z,-0.63
2022-11-27T02:05:49.061Z,-0.68
2022-11-27T02:08:16.844Z,-0.66
2022-11-27T02:11:02.032Z,-0.65
2022-11-27T02:14:07.598Z,-0.73
2022-11-27T02:16:47.609Z,-0.64
2022-11-27T02:19:23.011Z,-0.56
2022-11-27T02:22:00.139Z,-0.56
2022-11-27T02:24:45.189Z,-0.51
2022-11-27T02:27:26.787Z,-0.57
2022-11-27T02:29:58.420Z,-0.58
2022-11-27T02:32:32.303Z,-0.57
2022-11-27T02:35:11.476Z,-0.48
2022-11-27T02:38:21.208Z,-0.46
2022-11-27T02:41:26.654Z,-0.54
2022-11-27T02:43:54.974Z,-0.57
2022-11-27T02:46:22.961Z,-0.61
2022-11-27T02:48:55.489Z,-0.69
2022-11-27T02:51:39.106Z,-0.68
2022-11-27T02:54:09.618Z,-0.64
2022-11-27T02:56:37.349Z,-0.57
2022-11-27T02:59:09.038Z,-0.63
2022-11-27T03:01:40.413Z,-0.64
2022-11-27T03:04:10.367Z,-0.58
2022-11-27T03:06:42.180Z,-0.63
2022-11-27T03:09:19.199Z,-0.64
2022-11-27T03:11:46.332Z,-0.61
2022-11-27T03:14:15.501Z,-0.67
2022-11-27T03:17:14.512Z,-0.68
2022-11-27T03:19:53.276Z,-0.65
2022-11-27T03:22:19.818Z,-0.65
2022-11-27T03:24:46.406Z,-0.54
2022-11-27T03:27:14.968Z,-0.55
2022-11-27T03:29:48.622Z,-0.68
2022-11-27T03:32:15.455Z,-0.76
2022-11-27T03:34:43.159Z,-0.73
2022-11-27T03:37:10.282Z,-0.68
2022-11-27T03:39:37.169Z,-0.65
2022-11-27T03:42:24.709Z,-0.68
2022-11-27T03:45:09.502Z,-0.67
2022-11-27T03:47:41.718Z,-0.50
2022-11-27T03:50:26.788Z,-0.51
2022-11-27T03:52:53.300Z,-0.49
2022-11-27T03:55:37.615Z,-0.53
2022-11-27T03:58:08.698Z,-0.52
2022-11-27T04:00:40.357Z,-0.41
2022-11-27T04:03:10.560Z,-0.44
2022-11-27T04:05:37.962Z,-0.37
2022-11-27T04:08:04.963Z,-0.33
2022-11-27T04:10:31.460Z,-0.34
2022-11-27T04:12:58.022Z,-0.37
2022-11-27T04:15:24.481Z,-0.39
2022-11-27T04:17:51.319Z,-0.46
2022-11-27T04:20:17.848Z,-0.49
2022-11-27T04:22:44.346Z,-0.46
2022-11-27T04:25:10.827Z,-0.39
2022-11-27T04:27:37.313Z,-0.35
2022-11-27T04:30:04.163Z,-0.39
2022-11-27T04:32:30.627Z,-0.39
2022-11-27T04:34:57.122Z,-0.46
2022-11-27T04:37:23.702Z,-0.44
2022-11-27T04:39:50.206Z,-0.49
2022-11-27T04:42:16.700Z,-0.48
2022-11-27T04:44:43.356Z,-0.45
2022-11-27T04:47:09.932Z,-0.42
2022-11-27T04:49:36.403Z,-0.45
2022-11-27T04:52:03.151Z,-0.37
2022-11-27T04:54:29.635Z,-0.35
2022-11-27T04:56:56.128Z,-0.27
2022-11-27T04:59:23.164Z,-0.26
2022-11-27T05:01:50.039Z,-0.25
2022-11-27T05:04:16.634Z,-0.19
2022-11-27T05:06:43.101Z,-0.19
2022-11-27T05:09:09.577Z,-0.28
2022-11-27T05:11:36.125Z,-0.40
2022-11-27T05:14:15.052Z,-0.29
2022-11-27T05:16:42.841Z,-0.28
2022-11-27T05:19:10.657Z,-0.24
2022-11-27T05:21:37.785Z,-0.29
2022-11-27T05:24:04.992Z,-0.21
2022-11-27T05:26:31.770Z,-0.21
2022-11-27T05:28:58.280Z,-0.13
2022-11-27T05:31:25.429Z,-0.12
2022-11-27T05:33:52.297Z,-0.12
2022-11-27T05:36:19.015Z,-0.20
2022-11-27T05:38:45.511Z,-0.20
2022-11-27T05:41:12.163Z,-0.16
2022-11-27T05:43:38.804Z,-0.17
2022-11-27T05:46:07.394Z,-0.10
2022-11-27T05:48:35.516Z,-0.07
2022-11-27T05:51:02.076Z,-0.05
2022-11-27T05:53:28.750Z,-0.09
2022-11-27T05:55:55.316Z,-0.10
2022-11-27T05:58:21.828Z,-0.17
2022-11-27T06:00:48.311Z,-0.18
2022-11-27T06:03:14.960Z,-0.17
2022-11-27T06:05:41.502Z,-0.16
2022-11-27T06:08:08.028Z,-0.16
2022-11-27T06:10:34.582Z,-0.14
2022-11-27T06:13:01.109Z,-0.05
2022-11-27T06:15:27.628Z,-0.09
2022-11-27T06:17:54.193Z,-0.05
2022-11-27T06:20:20.758Z,-0.01
2022-11-27T06:22:47.549Z,0.01
2022-11-27T06:25:14.037Z,0.07
2022-11-27T06:27:40.517Z,0.08
2022-11-27T06:30:07.616Z,0.03
2022-11-27T06:32:34.181Z,0.00
2022-11-27T06:35:00.747Z,0.00
2022-11-27T06:37:27.489Z,0.08
2022-11-27T06:39:54.123Z,0.08
2022-11-27T06:42:20.783Z,0.06
2022-11-27T06:44:47.571Z,0.06
2022-11-27T06:47:14.095Z,0.05
2022-11-27T06:49:40.590Z,0.05
2022-11-27T06:52:07.086Z,0.08
2022-11-27T06:54:33.604Z,0.89
2022-11-27T06:57:00.145Z,0.85
2022-11-27T06:59:26.698Z,0.69
2022-11-27T07:01:53.284Z,0.59
2022-11-27T07:04:19.848Z,0.48
2022-11-27T07:06:46.400Z,0.41
2022-11-27T07:09:12.960Z,0.36
2022-11-27T07:11:40.185Z,0.38
2022-11-27T07:14:06.769Z,0.32
2022-11-27T07:16:35.840Z,0.35
2022-11-27T07:19:05.759Z,0.26
2022-11-27T07:21:32.895Z,0.30
2022-11-27T07:24:01.058Z,0.19
2022-11-27T07:26:29.675Z,0.17
2022-11-27T07:28:56.875Z,0.17
2022-11-27T07:31:28.170Z,0.01
2022-11-27T07:33:55.739Z,0.14
2022-11-27T07:36:25.023Z,0.23
2022-11-27T07:38:52.340Z,0.25
2022-11-27T07:41:19.535Z,0.34
2022-11-27T07:43:47.096Z,0.48
2022-11-27T07:46:16.695Z,0.66
2022-11-27T07:48:43.518Z,0.74
2022-11-27T07:51:12.699Z,0.63
2022-11-27T07:53:40.735Z,0.59
2022-11-27T07:56:08.838Z,0.56
2022-11-27T07:58:35.595Z,0.62
2022-11-27T08:01:06.832Z,0.63
2022-11-27T08:03:33.426Z,0.77
2022-11-27T08:05:59.979Z,0.95
2022-11-27T08:08:26.544Z,1.08
2022-11-27T08:10:53.049Z,1.06
2022-11-27T08:13:19.641Z,0.99
2022-11-27T08:15:46.265Z,0.98
2022-11-27T08:18:12.799Z,0.81
2022-11-27T08:20:39.406Z,0.91
2022-11-27T08:23:09.022Z,0.99
2022-11-27T08:25:37.247Z,1.07
2022-11-27T08:28:03.901Z,1.10
2022-11-27T08:30:30.462Z,1.10
2022-11-27T08:32:56.958Z,1.11
2022-11-27T08:35:23.462Z,1.06
2022-11-27T08:37:50.223Z,1.09
2022-11-27T08:40:16.934Z,1.06
2022-11-27T08:42:43.499Z,1.17
2022-11-27T08:45:13.124Z,1.05
2022-11-27T08:47:39.678Z,1.08
2022-11-27T08:50:07.008Z,1.13
2022-11-27T08:52:33.608Z,1.16
2022-11-27T08:55:00.230Z,1.28
2022-11-27T08:57:26.926Z,1.34
2022-11-27T08:59:54.890Z,1.37
2022-11-27T09:02:22.061Z,1.47
2022-11-27T09:04:48.563Z,1.50
2022-11-27T09:07:16.147Z,1.55
2022-11-27T09:09:43.002Z,1.56
2022-11-27T09:12:51.418Z,1.55
2022-11-27T09:15:18.563Z,1.60
2022-11-27T09:17:47.823Z,1.42
2022-11-27T09:20:15.959Z,1.46
2022-11-27T09:22:42.545Z,1.37
2022-11-27T09:25:10.125Z,1.48
2022-11-27T09:27:37.978Z,1.71
2022-11-27T09:30:07.398Z,1.97
2022-11-27T09:32:36.953Z,2.07
2022-11-27T09:35:04.091Z,2.04
2022-11-27T09:37:30.693Z,2.03
2022-11-27T09:39:59.184Z,2.02
2022-11-27T09:42:40.343Z,1.98
2022-11-27T09:45:13.514Z,1.82
2022-11-27T09:47:49.324Z,1.80
2022-11-27T09:50:23.628Z,1.90
2022-11-27T09:53:25.634Z,1.86
2022-11-27T09:55:58.479Z,1.80
2022-11-27T09:58:36.956Z,1.79
2022-11-27T10:01:14.691Z,1.81
2022-11-27T10:03:43.039Z,1.81
2022-11-27T10:06:28.512Z,1.89
2022-11-27T10:09:10.017Z,2.07
2022-11-27T10:11:44.867Z,2.38
2022-11-27T10:14:32.284Z,2.47
2022-11-27T10:17:22.562Z,2.59
2022-11-27T10:19:49.224Z,2.64
2022-11-27T10:22:23.643Z,2.70
2022-11-27T10:25:11.513Z,2.63
2022-11-27T10:27:51.746Z,2.65
2022-11-27T10:30:20.722Z,2.72
2022-11-27T10:32:55.943Z,2.79
2022-11-27T10:35:32.986Z,2.87
2022-11-27T10:38:13.026Z,3.00
2022-11-27T10:40:51.748Z,3.15
2022-11-27T10:43:23.956Z,3.09
2022-11-27T10:46:01.247Z,3.05
2022-11-27T10:48:30.631Z,3.14
2022-11-27T10:50:57.363Z,3.06
2022-11-27T10:53:26.821Z,2.96
2022-11-27T10:56:15.540Z,2.78
2022-11-27T10:58:50.878Z,2.95
2022-11-27T11:01:20.184Z,3.13
2022-11-27T11:03:47.179Z,3.24
2022-11-27T11:06:22.990Z,3.09
2022-11-27T11:09:14.598Z,3.12
2022-11-27T11:11:41.366Z,2.99
2022-11-27T11:14:26.088Z,3.20
2022-11-27T11:16:54.934Z,3.38
2022-11-27T11:19:33.917Z,3.40
2022-11-27T11:22:08.100Z,3.50
2022-11-27T11:24:43.712Z,3.48
2022-11-27T11:27:15.352Z,3.25
2022-11-27T11:30:03.464Z,3.03
2022-11-27T11:32:33.561Z,3.07
2022-11-27T11:35:03.013Z,3.16
2022-11-27T11:37:35.875Z,3.40
2022-11-27T11:40:28.050Z,3.41
2022-11-27T11:43:07.318Z,3.48
2022-11-27T11:45:35.148Z,3.53
2022-11-27T11:48:19.535Z,3.64
2022-11-27T11:50:54.085Z,3.45
2022-11-27T11:53:32.133Z,3.19
2022-11-27T11:56:39.996Z,3.24
2022-11-27T11:59:27.550Z,3.26
2022-11-27T12:02:00.151Z,3.39
2022-11-27T12:04:49.470Z,3.40
2022-11-27T12:07:40.713Z,3.40
2022-11-27T12:10:27.967Z,3.48
2022-11-27T12:13:48.730Z,3.60
2022-11-27T12:16:34.734Z,3.74
2022-11-27T12:19:13.716Z,3.70
2022-11-27T12:21:49.184Z,3.48
2022-11-27T12:24:24.355Z,3.54
2022-11-27T12:27:18.226Z,3.87
2022-11-27T12:30:05.398Z,4.00
2022-11-27T12:32:34.929Z,3.90
2022-11-27T12:35:33.503Z,3.82
2022-11-27T12:38:38.752Z,3.96
2022-11-27T12:41:33.513Z,4.06
2022-11-27T12:44:00.481Z,4.29
2022-11-27T12:46:39.420Z,4.12
2022-11-27T12:49:23.001Z,4.11
2022-11-27T12:51:52.865Z,4.35
2022-11-27T12:54:36.513Z,4.29
2022-11-27T12:57:10.518Z,4.09
2022-11-27T12:59:50.749Z,4.10
2022-11-27T13:02:40.610Z,4.05
2022-11-27T13:05:24.134Z,4.26
2022-11-27T13:08:03.028Z,4.35
2022-11-27T13:10:55.769Z,4.06
2022-11-27T13:13:29.135Z,4.04
2022-11-27T13:16:13.054Z,4.13
2022-11-27T13:18:54.609Z,4.08
2022-11-27T13:21:24.737Z,3.89
2022-11-27T13:23:51.556Z,3.96
2022-11-27T13:26:27.380Z,3.97
2022-11-27T13:29:03.616Z,3.99
2022-11-27T13:31:37.635Z,3.98
2022-11-27T13:34:14.891Z,3.98
2022-11-27T13:36:44.793Z,3.98
2022-11-27T13:39:30.982Z,4.00
2022-11-27T13:42:22.298Z,4.09
2022-11-27T13:44:57.287Z,3.97
2022-11-27T13:47:26.432Z,3.96
2022-11-27T13:50:09.189Z,3.98
2022-11-27T13:52:36.080Z,3.82
2022-11-27T13:55:06.258Z,3.63
2022-11-27T13:57:36.579Z,3.73
2022-11-27T14:00:16.255Z,3.75
2022-11-27T14:02:44.243Z,3.65
2022-11-27T14:05:12.324Z,3.71
2022-11-27T14:07:42.611Z,4.63
2022-11-27T14:10:14.948Z,5.17
2022-11-27T14:12:51.329Z,4.76
2022-11-27T14:15:17.786Z,4.31
2022-11-27T14:17:46.426Z,4.00
2022-11-27T14:20:18.702Z,3.80
2022-11-27T14:23:11.277Z,3.60
2022-11-27T14:25:38.607Z,3.41
2022-11-27T14:28:19.670Z,3.36
2022-11-27T14:30:52.148Z,3.25
2022-11-27T14:33:25.823Z,3.27
2022-11-27T14:35:55.476Z,3.28
2022-11-27T14:38:23.870Z,3.22
2022-11-27T14:40:53.949Z,3.22
2022-11-27T14:43:24.309Z,3.17
2022-11-27T14:45:54.192Z,3.18
2022-11-27T14:48:31.717Z,3.13
2022-11-27T14:50:59.255Z,3.10
2022-11-27T14:53:27.807Z,3.08
2022-11-27T14:55:57.634Z,3.12
2022-11-27T14:58:30.133Z,3.08
2022-11-27T15:00:56.774Z,3.09
2022-11-27T15:03:25.133Z,3.04
2022-11-27T15:06:00.620Z,3.06
2022-11-27T15:08:34.869Z,3.05
2022-11-27T15:11:05.040Z,3.04
2022-11-27T15:13:34.353Z,3.04
2022-11-27T15:16:15.182Z,2.96
2022-11-27T15:18:47.726Z,2.98
2022-11-27T15:21:20.678Z,3.08
2022-11-27T15:23:49.676Z,2.99
2022-11-27T15:26:32.942Z,2.94
2022-11-27T15:28:59.771Z,2.98
2022-11-27T15:31:30.884Z,2.99
2022-11-27T15:34:00.432Z,2.93
2022-11-27T15:36:33.616Z,2.97
2022-11-27T15:39:19.036Z,2.93
2022-11-27T15:41:56.063Z,2.89
2022-11-27T15:44:24.568Z,2.91
2022-11-27T15:46:52.038Z,2.90
2022-11-27T15:49:19.744Z,2.85
2022-11-27T15:51:46.616Z,2.85
2022-11-27T15:54:13.177Z,2.82
2022-11-27T15:56:40.007Z,2.80
2022-11-27T15:59:06.770Z,2.87
2022-11-27T16:01:33.393Z,2.82
2022-11-27T16:03:59.931Z,2.77
2022-11-27T16:06:26.454Z,2.81
2022-11-27T16:09:01.079Z,2.81
2022-11-27T16:11:29.645Z,2.88
2022-11-27T16:13:56.212Z,2.87
2022-11-27T16:16:23.580Z,2.86
2022-11-27T16:18:50.217Z,2.84
2022-11-27T16:21:18.281Z,2.75
2022-11-27T16:23:45.018Z,2.73
2022-11-27T16:26:12.786Z,2.73
2022-11-27T16:28:39.377Z,2.65
2022-11-27T16:31:09.871Z,2.64
2022-11-27T16:33:36.953Z,2.64
2022-11-27T16:36:09.062Z,2.62
2022-11-27T16:38:35.727Z,2.57
2022-11-27T16:41:04.575Z,2.59
2022-11-27T16:43:35.986Z,2.56
2022-11-27T16:46:11.240Z,2.48
2022-11-27T16:48:40.304Z,2.48
2022-11-27T16:51:16.451Z,2.43
2022-11-27T16:53:48.231Z,2.38
2022-11-27T16:56:17.401Z,2.33
2022-11-27T16:58:45.764Z,2.33
2022-11-27T17:01:15.583Z,2.30
2022-11-27T17:03:43.087Z,2.15
2022-11-27T17:06:13.011Z,2.16
2022-11-27T17:08:40.329Z,2.21
2022-11-27T17:11:12.641Z,2.20
2022-11-27T17:13:39.818Z,2.19
2022-11-27T17:16:08.815Z,2.15
2022-11-27T17:18:40.013Z,2.10
2022-11-27T17:21:18.103Z,2.02
2022-11-27T17:23:46.837Z,1.99
2022-11-27T17:26:16.207Z,1.93
2022-11-27T17:28:42.738Z,1.88
2022-11-27T17:31:11.745Z,1.88
2022-11-27T17:33:38.520Z,1.90
2022-11-27T17:36:05.772Z,1.85
2022-11-27T17:38:32.307Z,1.86
2022-11-27T17:41:11.811Z,1.90
2022-11-27T17:43:39.586Z,1.83
2022-11-27T17:46:13.363Z,1.90
2022-11-27T17:48:39.872Z,1.87
2022-11-27T17:51:07.633Z,1.81
2022-11-27T17:53:35.211Z,1.82
2022-11-27T17:56:10.111Z,1.75
2022-11-27T17:58:37.157Z,1.79
2022-11-27T18:01:05.103Z,1.80
2022-11-27T18:03:33.543Z,1.77
2022-11-27T18:06:06.639Z,1.75
2022-11-27T18:08:33.197Z,1.78
2022-11-27T18:11:12.295Z,1.83
2022-11-27T18:13:38.842Z,1.83
2022-11-27T18:16:14.384Z,1.83
2022-11-27T18:18:41.253Z,1.84
2022-11-27T18:21:19.591Z,1.85
2022-11-27T18:29:22.243Z,1.82
2022-11-27T18:31:50.273Z,1.86
2022-11-27T18:34:16.870Z,1.89
2022-11-27T18:36:43.432Z,1.87
2022-11-27T18:39:09.931Z,1.86
2022-11-27T18:41:37.243Z,1.89
2022-11-27T18:44:04.477Z,1.91
2022-11-27T18:46:31.150Z,1.95
2022-11-27T18:48:57.778Z,1.94
2022-11-27T18:51:26.574Z,1.95
2022-11-27T18:53:54.616Z,1.97
2022-11-27T18:56:25.749Z,1.98
2022-11-27T18:58:53.884Z,2.00
2022-11-27T19:01:25.806Z,2.02
2022-11-27T19:03:52.906Z,2.01
2022-11-27T19:06:21.200Z,2.00
2022-11-27T19:08:48.345Z,1.98
2022-11-27T19:11:17.638Z,1.99
2022-11-27T19:13:45.978Z,1.97
2022-11-27T19:16:18.768Z,1.99
2022-11-27T19:18:45.656Z,1.98
2022-11-27T19:21:15.988Z,1.99
2022-11-27T19:23:43.486Z,2.03
2022-11-27T19:26:12.764Z,2.02
2022-11-27T19:28:39.626Z,2.00
2022-11-27T19:31:10.154Z,2.05
2022-11-27T19:33:37.228Z,2.03
2022-11-27T19:36:09.981Z,2.03
2022-11-27T19:38:37.611Z,2.00
2022-11-27T19:41:08.180Z,1.98
2022-11-27T19:43:34.704Z,2.01
2022-11-27T19:46:01.275Z,1.97
2022-11-27T19:48:27.855Z,1.98
2022-11-27T19:51:01.210Z,1.97
2022-11-27T19:53:27.709Z,2.01
2022-11-27T19:55:54.897Z,1.98
2022-11-27T19:58:21.471Z,1.98
2022-11-27T20:00:48.068Z,1.94
2022-11-27T20:03:14.622Z,1.97
2022-11-27T20:05:41.192Z,1.96
2022-11-27T20:08:07.740Z,1.93
2022-11-27T20:10:34.236Z,1.91
2022-11-27T20:13:01.557Z,1.96
2022-11-27T20:15:28.167Z,1.91
2022-11-27T20:17:54.990Z,1.98
2022-11-27T20:20:22.079Z,2.00
2022-11-27T20:22:50.196Z,2.03
2022-11-27T20:25:19.788Z,2.00
2022-11-27T20:27:46.896Z,1.99
2022-11-27T20:30:13.539Z,2.01
2022-11-27T20:32:40.075Z,2.00
2022-11-27T20:35:06.832Z,1.99
2022-11-27T20:37:34.043Z,2.06
2022-11-27T20:40:00.646Z,2.05
2022-11-27T20:42:27.197Z,2.07
2022-11-27T20:44:53.722Z,2.08
2022-11-27T20:47:20.244Z,2.06
2022-11-27T20:49:46.782Z,2.02
2022-11-27T20:52:14.572Z,1.97
2022-11-27T20:54:41.107Z,2.01
2022-11-27T20:57:13.984Z,2.02
2022-11-27T20:59:41.859Z,1.94
2022-11-27T21:02:12.485Z,1.93
2022-11-27T21:04:39.057Z,1.95
2022-11-27T21:07:05.575Z,1.92
2022-11-27T21:09:32.155Z,1.99
2022-11-27T21:11:58.690Z,1.93
2022-11-27T21:14:25.203Z,1.90
2022-11-27T21:16:51.931Z,1.91
2022-11-27T21:19:21.703Z,1.93
2022-11-27T21:21:49.399Z,1.94
2022-11-27T21:24:16.654Z,1.90
2022-11-27T21:26:43.888Z,1.83
2022-11-27T21:29:12.395Z,1.81
2022-11-27T21:31:45.089Z,1.78
2022-11-27T21:34:16.133Z,1.83
2022-11-27T21:36:42.685Z,1.81
2022-11-27T21:39:09.280Z,1.74
2022-11-27T21:41:36.063Z,1.74
2022-11-27T21:44:03.818Z,1.76
2022-11-27T21:46:30.925Z,1.75
2022-11-27T21:48:59.590Z,1.65
2022-11-27T21:51:27.089Z,1.59
2022-11-27T21:53:55.614Z,1.56
2022-11-27T21:56:24.798Z,1.50
2022-11-27T21:58:51.583Z,1.54
2022-11-27T22:01:21.222Z,1.57
2022-11-27T22:03:50.170Z,1.52
2022-11-27T22:06:18.373Z,1.51
2022-11-27T22:08:46.500Z,1.49
2022-11-27T22:11:15.754Z,1.48
2022-11-27T22:13:42.913Z,1.52
2022-11-27T22:16:11.696Z,1.56
2022-11-27T22:18:38.661Z,1.58
2022-11-27T22:21:06.724Z,1.57
2022-11-27T22:23:33.563Z,1.58
2022-11-27T22:26:05.294Z,1.56
2022-11-27T22:28:31.929Z,1.58
2022-11-27T22:30:58.850Z,1.53
2022-11-27T22:33:25.627Z,1.55
2022-11-27T22:35:52.121Z,1.54
2022-11-27T22:38:18.662Z,1.48
2022-11-27T22:40:45.324Z,1.53
2022-11-27T22:43:11.844Z,1.52
2022-11-27T22:45:39.797Z,1.54
2022-11-27T22:48:06.514Z,1.52
2022-11-27T22:50:33.153Z,1.51
2022-11-27T22:52:59.753Z,1.52
2022-11-27T22:55:26.391Z,1.56
2022-11-27T22:57:52.875Z,1.61
2022-11-27T23:00:19.674Z,1.64
2022-11-27T23:02:46.318Z,1.67
2022-11-27T23:05:12.887Z,1.63
2022-11-27T23:07:39.417Z,1.55
2022-11-27T23:10:06.502Z,1.52
2022-11-27T23:12:32.997Z,1.54
2022-11-27T23:14:59.534Z,1.49
2022-11-27T23:17:26.034Z,1.51
2022-11-27T23:19:52.530Z,1.48
2022-11-27T23:22:19.008Z,1.48
2022-11-27T23:24:45.477Z,1.48
2022-11-27T23:27:11.971Z,1.53
2022-11-27T23:29:38.429Z,1.56
2022-11-27T23:32:05.142Z,1.64
2022-11-27T23:34:31.712Z,1.67
2022-11-27T23:36:58.221Z,1.70
2022-11-27T23:39:24.679Z,1.80
2022-11-27T23:41:51.225Z,1.85
2022-11-27T23:44:17.770Z,1.82
2022-11-27T23:46:44.326Z,1.83
2022-11-27T23:49:10.768Z,1.82
2022-11-27T23:51:37.328Z,1.75
2022-11-27T23:54:08.763Z,1.80
2022-11-27T23:56:36.445Z,1.75
2022-11-27T23:59:03.815Z,1.70
